createdAt,value
2022-07-31T00:03:26.048Z,15.20
2022-07-31T00:08:29.337Z,15.00
2022-07-31T00:13:56.361Z,15.00
2022-07-31T00:18:56.723Z,14.90
2022-07-31T00:23:59.770Z,14.90
2022-07-31T00:29:02.791Z,14.90
2022-07-31T00:34:07.412Z,14.90
2022-07-31T00:39:10.485Z,14.80
2022-07-31T00:44:14.354Z,14.70
2022-07-31T00:49:19.115Z,14.70
2022-07-31T00:54:22.562Z,14.60
2022-07-31T00:59:27.418Z,14.50
2022-07-31T01:04:32.225Z,14.40
2022-07-31T01:09:35.344Z,14.50
2022-07-31T01:14:43.255Z,14.40
2022-07-31T01:19:49.198Z,14.40
2022-07-31T01:25:05.422Z,14.30
2022-07-31T01:30:15.286Z,14.30
2022-07-31T01:35:22.500Z,14.30
2022-07-31T01:40:31.459Z,14.30
2022-07-31T01:45:38.609Z,14.40
2022-07-31T01:50:46.240Z,14.20
2022-07-31T01:56:02.086Z,14.10
2022-07-31T02:01:12.505Z,14.00
2022-07-31T02:06:19.004Z,14.00
2022-07-31T02:11:23.386Z,14.00
2022-07-31T02:16:29.619Z,14.00
2022-07-31T02:21:40.659Z,14.00
2022-07-31T02:26:44.235Z,13.80
2022-07-31T02:32:03.336Z,13.80
2022-07-31T02:37:08.884Z,13.60
2022-07-31T02:42:12.698Z,13.60
2022-07-31T02:47:18.243Z,13.60
2022-07-31T02:52:22.047Z,13.60
2022-07-31T02:57:25.749Z,13.40
2022-07-31T03:02:37.821Z,13.40
2022-07-31T03:07:41.716Z,13.30
2022-07-31T03:12:47.520Z,13.40
2022-07-31T03:17:53.645Z,13.20
2022-07-31T03:23:07.353Z,13.30
2022-07-31T03:28:19.318Z,13.30
2022-07-31T03:33:24.938Z,13.50
2022-07-31T03:38:38.224Z,13.30
2022-07-31T03:43:48.316Z,13.10
2022-07-31T03:48:58.274Z,13.20
2022-07-31T03:54:03.914Z,13.30
2022-07-31T03:59:20.110Z,13.50
2022-07-31T04:04:26.191Z,13.70
2022-07-31T04:09:33.391Z,13.80
2022-07-31T04:14:36.804Z,13.90
2022-07-31T04:19:41.934Z,13.90
2022-07-31T04:24:45.798Z,13.90
2022-07-31T04:30:08.801Z,14.10
2022-07-31T04:35:13.746Z,14.40
2022-07-31T04:40:17.400Z,14.50
2022-07-31T04:45:20.737Z,14.70
2022-07-31T04:50:25.160Z,14.80
2022-07-31T04:55:32.388Z,15.20
2022-07-31T05:00:35.555Z,15.60
2022-07-31T05:05:42.803Z,15.90
2022-07-31T05:11:04.486Z,16.00
2022-07-31T05:16:11.488Z,16.80
2022-07-31T05:21:17.313Z,19.50
2022-07-31T05:26:35.094Z,21.70
2022-07-31T05:31:38.331Z,23.10
2022-07-31T05:37:03.061Z,24.40
2022-07-31T05:42:08.271Z,25.70
2022-07-31T05:47:40.134Z,26.30
2022-07-31T05:52:46.369Z,25.50
2022-07-31T05:58:17.103Z,27.40
2022-07-31T06:03:23.362Z,27.20
2022-07-31T06:08:38.413Z,28.00
2022-07-31T06:13:43.394Z,28.90
2022-07-31T06:19:09.354Z,29.50
2022-07-31T06:24:13.910Z,28.40
2022-07-31T06:29:20.051Z,29.40
2022-07-31T06:34:43.301Z,29.20
2022-07-31T06:39:55.972Z,29.40
2022-07-31T06:45:30.034Z,29.70
2022-07-31T06:51:31.886Z,29.70
2022-07-31T06:56:30.037Z,30.50
2022-07-31T07:01:33.804Z,30.40
2022-07-31T07:06:37.274Z,30.30
2022-07-31T07:11:41.953Z,30.00
2022-07-31T07:16:48.290Z,30.10
2022-07-31T07:21:51.435Z,29.90
2022-07-31T07:26:56.090Z,30.90
2022-07-31T07:31:59.996Z,31.10
2022-07-31T07:37:03.339Z,31.10
2022-07-31T07:42:11.416Z,31.20
2022-07-31T07:47:14.557Z,32.00
2022-07-31T07:52:18.484Z,31.50
2022-07-31T07:57:44.959Z,30.00
2022-07-31T08:03:48.754Z,31.10
2022-07-31T08:08:43.375Z,32.10
2022-07-31T08:13:50.948Z,32.80
2022-07-31T08:19:13.117Z,32.90
2022-07-31T08:24:16.964Z,32.80
2022-07-31T08:29:28.879Z,32.30
2022-07-31T08:34:46.531Z,31.20
2022-07-31T08:39:51.228Z,32.30
2022-07-31T08:44:56.407Z,32.80
2022-07-31T08:50:05.597Z,33.80
2022-07-31T08:55:09.527Z,34.20
2022-07-31T09:00:19.659Z,35.00
2022-07-31T09:05:25.218Z,34.70
2022-07-31T09:10:30.217Z,35.20
2022-07-31T09:15:35.265Z,34.60
2022-07-31T09:20:41.207Z,34.40
2022-07-31T09:25:52.573Z,34.10
2022-07-31T09:30:57.373Z,32.70
2022-07-31T09:36:29.931Z,32.90
2022-07-31T09:42:00.140Z,34.00
2022-07-31T09:47:26.825Z,33.50
2022-07-31T09:52:31.824Z,33.70
2022-07-31T09:57:35.877Z,34.10
2022-07-31T10:02:43.662Z,34.10
2022-07-31T10:07:48.822Z,32.20
2022-07-31T10:13:01.821Z,33.50
2022-07-31T10:18:08.798Z,34.30
2022-07-31T10:23:28.997Z,34.00
2022-07-31T10:28:33.236Z,34.20
2022-07-31T10:33:45.355Z,34.40
2022-07-31T10:39:15.769Z,33.80
2022-07-31T10:44:38.185Z,34.40
2022-07-31T10:49:57.016Z,35.30
2022-07-31T10:55:27.146Z,34.40
2022-07-31T11:00:52.099Z,31.70
2022-07-31T11:06:09.349Z,32.10
2022-07-31T11:11:33.211Z,33.10
2022-07-31T11:16:55.822Z,31.90
2022-07-31T11:22:40.845Z,30.90
2022-07-31T11:27:44.105Z,31.00
2022-07-31T11:32:51.451Z,32.10
2022-07-31T11:37:58.347Z,33.40
2022-07-31T11:48:38.266Z,31.30
2022-07-31T11:53:45.491Z,31.70
2022-07-31T11:58:52.772Z,32.00
2022-07-31T12:03:57.018Z,30.90
2022-07-31T12:09:04.642Z,30.20
2022-07-31T12:14:08.127Z,29.60
2022-07-31T12:19:11.198Z,29.10
2022-07-31T12:24:16.609Z,29.60
2022-07-31T12:29:20.674Z,31.70
2022-07-31T12:34:27.845Z,32.70
2022-07-31T12:39:53.691Z,33.00
2022-07-31T12:45:19.384Z,33.90
2022-07-31T12:50:24.828Z,35.10
2022-07-31T12:55:32.238Z,35.40
2022-07-31T13:00:39.627Z,33.40
2022-07-31T13:05:43.451Z,34.60
2022-07-31T13:10:48.271Z,34.80
2022-07-31T13:15:51.774Z,33.60
2022-07-31T13:20:54.720Z,33.70
2022-07-31T13:26:00.044Z,32.20
2022-07-31T13:31:03.207Z,32.10
2022-07-31T13:36:06.508Z,32.00
2022-07-31T13:41:28.322Z,31.50
2022-07-31T13:46:31.787Z,32.50
2022-07-31T13:51:35.006Z,32.20
2022-07-31T13:56:43.472Z,32.70
2022-07-31T14:02:03.446Z,32.80
2022-07-31T14:07:09.089Z,33.20
2022-07-31T14:12:13.766Z,33.70
2022-07-31T14:17:18.463Z,32.80
2022-07-31T14:22:21.558Z,32.40
2022-07-31T14:27:28.238Z,33.30
2022-07-31T14:32:31.560Z,33.40
2022-07-31T14:37:34.716Z,32.70
2022-07-31T14:42:39.428Z,33.00
2022-07-31T14:47:42.487Z,32.50
2022-07-31T14:52:45.502Z,33.20
2022-07-31T14:57:50.201Z,32.50
2022-07-31T15:02:53.556Z,33.00
2022-07-31T15:07:58.770Z,33.60
2022-07-31T15:13:03.291Z,33.30
2022-07-31T15:18:06.670Z,32.90
2022-07-31T15:23:09.756Z,32.70
2022-07-31T15:28:14.874Z,33.20
2022-07-31T15:33:17.994Z,33.20
2022-07-31T15:38:21.216Z,33.80
2022-07-31T15:43:25.577Z,33.80
2022-07-31T15:48:29.015Z,33.40
2022-07-31T15:53:37.354Z,33.50
2022-07-31T15:58:43.861Z,31.90
2022-07-31T16:03:53.057Z,30.80
2022-07-31T16:08:56.699Z,30.90
2022-07-31T16:14:01.092Z,31.30
2022-07-31T16:19:04.284Z,31.50
2022-07-31T16:24:07.581Z,30.60
2022-07-31T16:29:17.437Z,30.80
2022-07-31T16:34:21.184Z,31.30
2022-07-31T16:39:24.268Z,31.50
2022-07-31T16:44:29.410Z,30.60
2022-07-31T16:49:36.272Z,29.60
2022-07-31T16:54:40.711Z,28.80
2022-07-31T16:59:57.281Z,28.40
2022-07-31T17:05:01.111Z,27.80
2022-07-31T17:10:05.013Z,27.60
2022-07-31T17:15:10.969Z,27.40
2022-07-31T17:20:15.019Z,27.40
2022-07-31T17:25:18.781Z,27.10
2022-07-31T17:30:23.362Z,26.90
2022-07-31T17:35:26.501Z,26.80
2022-07-31T17:40:43.054Z,26.60
2022-07-31T17:46:05.766Z,26.50
2022-07-31T17:51:12.056Z,26.30
2022-07-31T17:56:15.225Z,26.10
2022-07-31T18:01:19.692Z,25.90
2022-07-31T18:06:22.854Z,25.60
2022-07-31T18:11:26.729Z,25.40
2022-07-31T18:16:31.100Z,25.20
2022-07-31T18:21:34.517Z,25.00
2022-07-31T18:26:37.830Z,24.70
2022-07-31T18:31:42.672Z,24.50
2022-07-31T18:36:45.865Z,24.30
2022-07-31T18:41:49.207Z,24.20
2022-07-31T18:46:53.780Z,24.00
2022-07-31T18:51:57.033Z,23.80
2022-07-31T18:57:00.528Z,23.70
2022-07-31T19:02:05.905Z,23.60
2022-07-31T19:07:09.265Z,23.50
2022-07-31T19:12:13.879Z,23.20
2022-07-31T19:17:21.460Z,23.00
2022-07-31T19:22:24.948Z,22.90
2022-07-31T19:27:48.214Z,22.90
2022-07-31T19:32:52.594Z,22.90
2022-07-31T19:37:56.753Z,22.70
2022-07-31T19:42:59.903Z,22.50
2022-07-31T19:48:05.070Z,22.40
2022-07-31T19:53:08.527Z,22.40
2022-07-31T19:58:11.585Z,22.40
2022-07-31T20:03:16.109Z,22.30
2022-07-31T20:08:19.328Z,22.30
2022-07-31T20:13:22.385Z,22.30
2022-07-31T20:18:28.597Z,22.30
2022-07-31T20:23:34.351Z,22.30
2022-07-31T20:28:40.500Z,22.30
2022-07-31T20:33:56.547Z,22.20
2022-07-31T20:39:00.561Z,22.10
2022-07-31T20:44:03.997Z,22.10
2022-07-31T20:49:08.498Z,22.10
2022-07-31T20:54:34.309Z,22.10
2022-07-31T20:59:38.230Z,22.00
2022-07-31T21:04:43.256Z,22.00
2022-07-31T21:09:46.186Z,22.00
2022-07-31T21:14:49.227Z,21.90
2022-07-31T21:19:54.151Z,21.70
2022-07-31T21:24:57.280Z,21.60
2022-07-31T21:30:00.819Z,21.60
2022-07-31T21:35:07.116Z,21.50
2022-07-31T21:40:11.721Z,21.40
2022-07-31T21:45:15.881Z,21.00
2022-07-31T21:50:29.038Z,20.50
2022-07-31T21:55:32.537Z,20.10
2022-07-31T22:00:36.153Z,20.10
2022-07-31T22:06:00.686Z,20.20
2022-07-31T22:11:03.828Z,20.50
2022-07-31T22:16:07.377Z,20.40
2022-07-31T22:21:12.542Z,20.50
2022-07-31T22:26:16.233Z,20.60
2022-07-31T22:31:20.107Z,20.90
2022-07-31T22:36:25.543Z,21.10
2022-07-31T22:41:28.691Z,21.10
2022-07-31T22:46:32.720Z,21.10
2022-07-31T22:51:38.680Z,21.20
2022-07-31T22:56:42.645Z,21.20
2022-07-31T23:01:45.701Z,21.00
2022-07-31T23:06:50.337Z,20.80
2022-07-31T23:11:53.448Z,21.00
2022-07-31T23:16:56.524Z,20.90
2022-07-31T23:22:00.957Z,21.00
2022-07-31T23:27:08.288Z,20.90
2022-07-31T23:32:11.316Z,20.90
2022-07-31T23:37:15.733Z,20.90
2022-07-31T23:42:37.441Z,20.80
2022-07-31T23:47:45.472Z,20.80
2022-07-31T23:52:51.974Z,20.80
2022-07-31T23:57:55.151Z,20.90
